Terminal Aerodrome Forecast
Issued by NWS

Home | Current Version | Previous Version | Graphics & Text | Print | Product List | Glossary On
Versions: 1 2 3 4 5 6 7 8 9 10 11 12 13 14 15 16 17 18
000
FTUS43 KLSX 280500
TAFUIN
TAF
KUIN 280527Z 2806/2906 30008KT P6SM OVC018
     FM281030 30006KT P6SM SCT200
     FM281200 27005KT P6SM BKN200
     FM290100 VRB03KT P6SM BKN200=

USA.gov is the U.S. government's official web portal to all federal, state and local government web resources and services.